createdAt,value
2018-12-31T00:04:20.698Z,10.11
2018-12-31T00:09:26.284Z,10.10
2018-12-31T00:14:31.823Z,10.20
2018-12-31T00:19:37.538Z,10.29
2018-12-31T00:24:44.358Z,10.33
2018-12-31T00:29:50.038Z,10.53
2018-12-31T00:34:55.459Z,10.72
2018-12-31T00:40:02.499Z,10.85
2018-12-31T00:45:08.479Z,10.52
2018-12-31T00:50:14.250Z,10.34
2018-12-31T00:55:19.678Z,10.38
2018-12-31T01:00:25.937Z,10.31
2018-12-31T01:05:31.729Z,10.25
2018-12-31T01:10:37.559Z,10.40
2018-12-31T01:15:43.080Z,10.44
2018-12-31T01:20:48.624Z,10.29
2018-12-31T01:25:54.005Z,10.05
2018-12-31T01:31:00.486Z,10.17
2018-12-31T01:36:05.900Z,10.20
2018-12-31T01:41:11.329Z,10.32
2018-12-31T01:46:16.745Z,10.30
2018-12-31T01:51:22.249Z,10.41
2018-12-31T01:56:27.659Z,10.07
2018-12-31T02:01:33.120Z,10.17
2018-12-31T02:06:38.694Z,10.45
2018-12-31T02:11:44.425Z,10.67
2018-12-31T02:16:49.941Z,10.70
2018-12-31T02:21:55.519Z,10.75
2018-12-31T02:27:01.048Z,10.67
2018-12-31T02:32:06.586Z,10.31
2018-12-31T02:37:12.443Z,10.44
2018-12-31T02:42:17.985Z,10.52
2018-12-31T02:47:23.419Z,10.43
2018-12-31T02:52:28.949Z,10.53
2018-12-31T02:57:34.261Z,10.76
2018-12-31T03:02:39.773Z,10.67
2018-12-31T03:07:45.113Z,10.44
2018-12-31T03:12:50.701Z,10.48
2018-12-31T03:17:56.388Z,10.28
2018-12-31T03:28:19.258Z,10.08
2018-12-31T03:38:50.037Z,10.25
2018-12-31T03:43:55.482Z,10.35
2018-12-31T03:49:01.122Z,10.44
2018-12-31T03:54:06.603Z,10.47
2018-12-31T03:59:12.984Z,10.40
2018-12-31T04:04:18.404Z,10.44
2018-12-31T04:09:23.950Z,10.23
2018-12-31T04:14:29.528Z,10.22
2018-12-31T04:19:34.961Z,10.26
2018-12-31T04:24:40.522Z,10.51
2018-12-31T04:29:46.115Z,10.49
2018-12-31T04:34:51.489Z,10.37
2018-12-31T04:39:57.224Z,10.41
2018-12-31T04:45:02.689Z,10.33
2018-12-31T04:50:08.284Z,10.31
2018-12-31T04:55:13.714Z,10.40
2018-12-31T05:00:19.233Z,10.62
2018-12-31T05:05:24.722Z,10.84
2018-12-31T05:10:30.261Z,10.87
2018-12-31T05:15:35.708Z,10.88
2018-12-31T05:20:41.200Z,10.96
2018-12-31T05:25:46.649Z,10.90
2018-12-31T05:30:52.172Z,11.00
2018-12-31T05:35:57.605Z,11.23
2018-12-31T05:41:03.353Z,10.88
2018-12-31T05:46:08.979Z,10.52
2018-12-31T05:51:14.499Z,10.34
2018-12-31T05:56:19.929Z,10.24
2018-12-31T06:01:26.349Z,10.39
2018-12-31T06:06:31.770Z,10.39
2018-12-31T06:11:37.337Z,10.38
2018-12-31T06:16:42.674Z,10.75
2018-12-31T06:21:48.168Z,10.94
2018-12-31T06:26:53.639Z,11.15
2018-12-31T06:31:59.150Z,11.24
2018-12-31T06:37:04.644Z,11.27
2018-12-31T06:42:10.103Z,11.38
2018-12-31T06:47:16.398Z,11.40
2018-12-31T06:52:21.749Z,11.45
2018-12-31T06:57:27.172Z,11.39
2018-12-31T07:02:32.772Z,11.38
2018-12-31T07:07:38.434Z,11.40
2018-12-31T07:12:44.078Z,11.36
2018-12-31T07:17:49.557Z,11.28
2018-12-31T07:22:55.028Z,11.28
2018-12-31T07:28:00.410Z,11.18
2018-12-31T07:33:06.078Z,11.23
2018-12-31T07:38:11.847Z,11.29
2018-12-31T07:43:17.695Z,11.09
2018-12-31T07:48:23.536Z,11.08
2018-12-31T07:53:29.437Z,11.21
2018-12-31T07:58:34.917Z,11.40
2018-12-31T08:03:40.521Z,11.18
2018-12-31T08:08:46.191Z,11.21
2018-12-31T08:13:51.786Z,11.10
2018-12-31T08:18:57.472Z,11.21
2018-12-31T08:24:04.271Z,11.14
2018-12-31T08:34:41.474Z,10.73
2018-12-31T08:39:47.044Z,10.61
2018-12-31T08:44:52.951Z,10.63
2018-12-31T08:50:02.719Z,11.04
2018-12-31T08:55:06.781Z,11.25
2018-12-31T09:00:12.855Z,11.38
2018-12-31T09:05:18.313Z,11.42
2018-12-31T09:10:23.781Z,11.32
2018-12-31T09:15:29.201Z,11.30
2018-12-31T09:20:34.705Z,11.17
2018-12-31T09:25:40.346Z,11.19
2018-12-31T09:30:47.801Z,11.11
2018-12-31T09:46:32.789Z,11.19
2018-12-31T09:51:39.417Z,11.25
2018-12-31T09:56:45.035Z,11.38
2018-12-31T10:01:50.645Z,11.35
2018-12-31T10:06:56.283Z,11.49
2018-12-31T10:12:01.825Z,11.47
2018-12-31T10:17:07.504Z,11.73
2018-12-31T10:22:13.456Z,11.81
2018-12-31T10:27:19.163Z,11.81
2018-12-31T10:37:35.934Z,11.94
2018-12-31T10:42:41.454Z,11.94
2018-12-31T10:47:47.297Z,11.78
2018-12-31T10:52:52.860Z,11.71
2018-12-31T10:57:59.166Z,11.86
2018-12-31T11:03:04.714Z,11.70
2018-12-31T11:08:10.645Z,11.57
2018-12-31T11:13:16.386Z,11.73
2018-12-31T11:18:22.175Z,11.95
2018-12-31T11:23:27.736Z,11.99
2018-12-31T11:28:33.276Z,12.09
2018-12-31T11:33:38.754Z,12.15
2018-12-31T11:38:44.321Z,11.60
2018-12-31T11:43:50.016Z,11.59
2018-12-31T11:48:55.785Z,11.52
2018-12-31T11:54:01.415Z,11.70
2018-12-31T11:59:06.985Z,11.75
2018-12-31T12:04:12.415Z,11.43
2018-12-31T12:09:18.039Z,11.53
2018-12-31T12:14:23.505Z,11.59
2018-12-31T12:19:29.546Z,11.34
2018-12-31T12:24:35.425Z,11.27
2018-12-31T12:29:41.266Z,11.28
2018-12-31T12:34:46.985Z,11.39
2018-12-31T12:39:52.538Z,11.36
2018-12-31T12:44:58.185Z,11.22
2018-12-31T12:50:03.778Z,11.22
2018-12-31T12:55:09.467Z,11.39
2018-12-31T13:00:15.192Z,11.41
2018-12-31T13:05:21.045Z,11.41
2018-12-31T13:10:27.209Z,11.37
2018-12-31T13:15:32.907Z,11.40
2018-12-31T13:20:38.547Z,11.49
2018-12-31T13:25:44.384Z,11.73
2018-12-31T13:30:49.799Z,11.71
2018-12-31T13:35:55.916Z,11.67
2018-12-31T13:41:01.804Z,11.53
2018-12-31T13:46:07.526Z,11.45
2018-12-31T13:51:13.045Z,11.49
2018-12-31T13:56:18.644Z,11.28
2018-12-31T14:01:24.205Z,11.06
2018-12-31T14:06:30.024Z,10.96
2018-12-31T14:11:35.724Z,11.27
2018-12-31T14:16:41.261Z,11.40
2018-12-31T14:21:46.887Z,11.59
2018-12-31T14:27:00.342Z,11.36
2018-12-31T14:31:59.987Z,11.36
2018-12-31T14:37:06.586Z,11.53
2018-12-31T14:42:12.208Z,11.44
2018-12-31T14:47:18.539Z,11.39
2018-12-31T14:52:24.225Z,11.25
2018-12-31T14:57:30.129Z,11.19
2018-12-31T15:02:35.745Z,11.22
2018-12-31T15:07:41.527Z,11.29
2018-12-31T15:12:48.107Z,11.49
2018-12-31T15:17:53.745Z,11.68
2018-12-31T15:22:59.518Z,11.56
2018-12-31T15:28:05.226Z,11.48
2018-12-31T15:33:11.012Z,11.09
2018-12-31T15:38:16.827Z,11.23
2018-12-31T15:43:22.638Z,11.18
2018-12-31T15:48:28.345Z,11.08
2018-12-31T15:53:33.949Z,11.21
2018-12-31T15:58:39.607Z,11.15
2018-12-31T16:03:45.217Z,10.93
2018-12-31T16:08:50.846Z,10.96
2018-12-31T16:13:56.366Z,11.04
2018-12-31T16:19:02.187Z,11.02
2018-12-31T16:24:08.270Z,11.09
2018-12-31T16:29:14.054Z,11.05
2018-12-31T16:34:19.594Z,11.12
2018-12-31T16:39:25.535Z,11.28
2018-12-31T16:44:31.107Z,11.30
2018-12-31T16:54:48.628Z,10.94
2018-12-31T17:05:25.635Z,10.74
2018-12-31T17:10:31.217Z,10.55
2018-12-31T17:15:36.929Z,10.33
2018-12-31T17:20:42.982Z,10.46
2018-12-31T17:25:48.849Z,10.75
2018-12-31T17:30:54.249Z,10.97
2018-12-31T17:35:59.885Z,11.20
2018-12-31T17:41:05.854Z,11.20
2018-12-31T17:51:19.621Z,11.25
2018-12-31T18:01:46.380Z,10.66
2018-12-31T18:06:52.330Z,10.69
2018-12-31T18:11:57.980Z,10.57
2018-12-31T18:17:03.719Z,10.55
2018-12-31T18:22:09.459Z,10.55
2018-12-31T18:27:15.289Z,10.40
2018-12-31T18:32:21.252Z,10.43
2018-12-31T18:37:26.890Z,10.44
2018-12-31T18:42:32.521Z,10.06
2018-12-31T18:47:38.121Z,10.52
2018-12-31T18:52:43.939Z,10.47
2018-12-31T18:57:49.484Z,10.56
2018-12-31T19:02:54.919Z,10.82
2018-12-31T19:08:00.315Z,10.82
2018-12-31T19:13:05.798Z,10.73
2018-12-31T19:18:11.493Z,10.57
2018-12-31T19:23:17.071Z,10.24
2018-12-31T19:28:22.725Z,10.32
2018-12-31T19:33:28.378Z,10.26
2018-12-31T19:38:33.884Z,10.30
2018-12-31T19:43:39.413Z,10.55
2018-12-31T19:48:44.949Z,10.71
2018-12-31T19:53:53.244Z,10.80
2018-12-31T19:58:58.818Z,10.83
2018-12-31T20:04:04.418Z,10.85
2018-12-31T20:09:10.049Z,10.90
2018-12-31T20:14:15.721Z,10.80
2018-12-31T20:19:21.458Z,10.72
2018-12-31T20:24:28.013Z,10.65
2018-12-31T20:29:33.693Z,10.38
2018-12-31T20:34:39.325Z,10.40
2018-12-31T20:39:44.837Z,10.01
2018-12-31T20:44:50.388Z,9.96
2018-12-31T20:49:55.803Z,9.77
2018-12-31T20:55:01.748Z,10.01
2018-12-31T21:00:08.393Z,10.23
2018-12-31T21:05:14.168Z,10.48
2018-12-31T21:10:19.792Z,10.51
2018-12-31T21:15:25.588Z,10.54
2018-12-31T21:20:31.064Z,10.52
2018-12-31T21:25:36.798Z,10.32
2018-12-31T21:30:42.133Z,10.47
2018-12-31T21:35:48.137Z,10.51
2018-12-31T21:40:53.619Z,10.25
2018-12-31T21:45:59.593Z,10.04
2018-12-31T21:51:05.173Z,10.13
2018-12-31T21:56:11.194Z,10.39
2018-12-31T22:01:16.669Z,10.20
2018-12-31T22:06:22.598Z,10.68
2018-12-31T22:11:28.128Z,10.68
2018-12-31T22:16:34.334Z,10.54
2018-12-31T22:21:39.814Z,10.48
2018-12-31T22:26:45.538Z,10.33
2018-12-31T22:31:51.017Z,10.11
2018-12-31T22:36:56.993Z,9.92
2018-12-31T22:42:02.418Z,10.02
2018-12-31T22:47:08.543Z,9.73
2018-12-31T22:52:13.928Z,10.08
2018-12-31T22:57:19.899Z,10.39
2018-12-31T23:02:25.457Z,10.09
2018-12-31T23:07:31.467Z,10.07
2018-12-31T23:12:36.913Z,9.67
2018-12-31T23:17:43.122Z,9.57
2018-12-31T23:22:48.597Z,10.02
2018-12-31T23:27:54.415Z,10.19
2018-12-31T23:32:59.792Z,9.84
2018-12-31T23:38:05.819Z,10.10
2018-12-31T23:43:11.514Z,10.12
2018-12-31T23:48:17.445Z,10.16
2018-12-31T23:53:22.896Z,9.92
2018-12-31T23:58:28.436Z,9.94
